Time;durP1;ratioP1;P1;durP2;ratioP2;P2;SDS_P1;SDS_P2;PMS_P1;PMS_P2;Temp;Humidity;BMP_temperature;BMP_pressure;BME280_temperature;BME280_humidity;BME280_pressure;Samples;Min_cycle;Max_cycle;Signal;HPM_P1;HPM_P2
2023/11/05 00:01:35;;;;;;;3.90;0.30;;;10.20;1.00;;;;;;5010220;28;20848;-70
2023/11/05 00:04:02;;;;;;;3.90;0.40;;;10.20;1.00;;;;;;5009979;28;20385;-69
2023/11/05 00:06:29;;;;;;;4.40;0.60;;;10.20;1.00;;;;;;5010102;28;20397;-70
2023/11/05 00:08:54;;;;;;;3.78;0.35;;;10.30;1.00;;;;;;5010243;28;20388;-70
2023/11/05 00:11:20;;;;;;;3.90;0.50;;;10.20;1.00;;;;;;5010262;28;20524;-69
2023/11/05 00:13:46;;;;;;;3.70;0.30;;;10.10;1.00;;;;;;5010346;28;20400;-69
2023/11/05 00:16:12;;;;;;;4.00;0.50;;;10.20;1.00;;;;;;5007492;28;20439;-69
2023/11/05 00:18:39;;;;;;;5.00;0.50;;;10.10;1.00;;;;;;5009437;28;20811;-69
2023/11/05 00:21:05;;;;;;;4.50;0.40;;;10.10;1.00;;;;;;5009833;28;20531;-69
2023/11/05 00:23:31;;;;;;;6.53;0.68;;;10.10;1.00;;;;;;5007138;28;20463;-69
2023/11/05 00:25:57;;;;;;;3.70;0.40;;;10.10;1.00;;;;;;5009842;28;20905;-69
2023/11/05 00:28:22;;;;;;;3.67;0.30;;;10.10;1.00;;;;;;5008989;28;20905;-69
2023/11/05 00:30:48;;;;;;;3.90;0.40;;;10.00;1.00;;;;;;5009200;28;20405;-70
2023/11/05 00:33:13;;;;;;;3.60;0.20;;;10.00;1.00;;;;;;5010355;28;20881;-70
2023/11/05 00:35:39;;;;;;;4.00;0.55;;;10.00;1.00;;;;;;5009653;28;20475;-70
2023/11/05 00:38:05;;;;;;;3.90;0.33;;;10.00;1.00;;;;;;5009679;28;20400;-69
2023/11/05 00:40:31;;;;;;;5.30;0.50;;;10.00;1.00;;;;;;5009338;28;20396;-70
2023/11/05 00:42:57;;;;;;;3.87;0.40;;;10.00;1.00;;;;;;5010072;28;20397;-70
2023/11/05 00:45:22;;;;;;;4.50;0.50;;;10.00;1.00;;;;;;5009707;28;20728;-68
2023/11/05 00:47:48;;;;;;;3.80;0.30;;;10.00;1.00;;;;;;5009795;28;20481;-69
2023/11/05 00:50:13;;;;;;;3.80;0.30;;;10.00;1.00;;;;;;5010550;28;20861;-70
2023/11/05 00:52:39;;;;;;;3.60;0.30;;;10.00;1.00;;;;;;5009664;28;20425;-68
2023/11/05 00:55:05;;;;;;;3.70;0.40;;;10.00;1.00;;;;;;5009547;28;20432;-69
2023/11/05 00:57:30;;;;;;;3.70;0.40;;;10.00;1.00;;;;;;5009721;28;20397;-69
2023/11/05 00:59:58;;;;;;;3.90;0.40;;;10.10;1.00;;;;;;5008923;28;20417;-69
2023/11/05 01:02:23;;;;;;;4.40;0.30;;;10.10;1.00;;;;;;5008859;28;20401;-69
2023/11/05 01:04:49;;;;;;;5.47;1.10;;;10.10;1.00;;;;;;5009799;28;20881;-69
2023/11/05 01:07:14;;;;;;;3.80;0.30;;;10.20;1.00;;;;;;5009282;28;20432;-69
2023/11/05 01:09:40;;;;;;;3.80;0.38;;;10.10;1.00;;;;;;5009939;28;20726;-69
2023/11/05 01:12:05;;;;;;;3.70;0.20;;;10.10;1.00;;;;;;5009330;28;20389;-69
2023/11/05 01:14:31;;;;;;;4.00;0.30;;;10.10;1.00;;;;;;5009079;28;20392;-69
2023/11/05 01:16:56;;;;;;;3.70;0.30;;;10.20;1.00;;;;;;5008875;28;20432;-70
2023/11/05 01:19:22;;;;;;;3.87;0.33;;;10.20;99.90;;;;;;5009379;28;20404;-70
2023/11/05 01:21:47;;;;;;;3.70;0.30;;;10.20;99.90;;;;;;5007749;28;20903;-70
2023/11/05 01:24:13;;;;;;;3.90;0.60;;;10.20;99.90;;;;;;5007600;28;20403;-70
2023/11/05 01:26:39;;;;;;;3.70;0.30;;;10.20;99.90;;;;;;5006962;28;20397;-69
2023/11/05 01:29:05;;;;;;;3.80;0.40;;;10.20;99.90;;;;;;5006784;28;20419;-69
2023/11/05 01:31:30;;;;;;;3.70;0.20;;;10.30;99.90;;;;;;5005247;28;20405;-69
2023/11/05 01:33:56;;;;;;;3.80;0.27;;;10.30;99.90;;;;;;5008476;28;20416;-70
2023/11/05 01:36:21;;;;;;;3.70;0.30;;;10.30;99.90;;;;;;5008450;28;20416;-69
2023/11/05 01:38:47;;;;;;;4.10;0.50;;;10.30;99.90;;;;;;5008696;28;20431;-69
2023/11/05 01:41:12;;;;;;;4.57;0.65;;;10.40;99.90;;;;;;5009521;28;20431;-69
2023/11/05 01:43:38;;;;;;;3.90;0.30;;;10.50;99.90;;;;;;5008937;28;20496;-69
2023/11/05 01:46:04;;;;;;;4.00;0.40;;;10.60;99.90;;;;;;5007303;28;20414;-71
2023/11/05 01:48:29;;;;;;;3.80;0.30;;;10.70;99.90;;;;;;5007043;28;20516;-70
2023/11/05 01:50:56;;;;;;;4.10;0.40;;;10.70;99.90;;;;;;5008695;28;20416;-70
2023/11/05 01:53:24;;;;;;;3.70;0.25;;;10.70;99.90;;;;;;5008747;28;20419;-70
2023/11/05 01:55:51;;;;;;;4.10;0.40;;;10.70;99.90;;;;;;5008437;28;20413;-70
2023/11/05 01:58:17;;;;;;;3.90;0.40;;;10.70;99.90;;;;;;5008352;28;20412;-70
2023/11/05 02:00:42;;;;;;;3.80;0.30;;;10.70;99.90;;;;;;5007565;28;20413;-69
2023/11/05 02:03:08;;;;;;;4.90;0.40;;;10.60;99.90;;;;;;5008383;28;20487;-70
2023/11/05 02:05:34;;;;;;;3.70;0.20;;;10.60;99.90;;;;;;5005479;28;20507;-70
2023/11/05 02:08:01;;;;;;;4.00;0.30;;;10.70;99.90;;;;;;5008190;28;20463;-69
2023/11/05 02:10:26;;;;;;;5.50;0.50;;;10.70;99.90;;;;;;5008489;28;20466;-70
2023/11/05 02:13:10;;;;;;;3.80;0.30;;;10.70;99.90;;;;;;5008327;28;20421;-69
2023/11/05 02:15:36;;;;;;;3.80;0.30;;;10.80;99.90;;;;;;5006010;28;20409;-70
2023/11/05 02:18:01;;;;;;;3.80;0.30;;;10.80;99.90;;;;;;5008188;28;20416;-69
2023/11/05 02:20:27;;;;;;;3.90;0.40;;;10.80;99.90;;;;;;5008561;28;20761;-69
2023/11/05 02:22:54;;;;;;;4.00;0.30;;;10.80;99.90;;;;;;5009304;28;20401;-69
2023/11/05 02:25:19;;;;;;;3.90;0.50;;;10.80;99.90;;;;;;5012152;28;20897;-69
2023/11/05 02:27:48;;;;;;;3.80;0.30;;;10.80;99.90;;;;;;5011690;28;20389;-69
2023/11/05 02:30:18;;;;;;;3.80;0.30;;;10.80;99.90;;;;;;5009493;28;20408;-69
2023/11/05 02:32:45;;;;;;;4.70;0.60;;;10.80;99.90;;;;;;5009673;28;20869;-69
2023/11/05 02:35:12;;;;;;;6.10;0.60;;;10.90;99.90;;;;;;5011776;28;20475;-70
2023/11/05 02:37:38;;;;;;;3.80;0.20;;;10.90;99.90;;;;;;5011623;28;20531;-70
2023/11/05 02:40:08;;;;;;;3.80;0.30;;;11.00;99.90;;;;;;5011881;28;20405;-70
2023/11/05 02:42:34;;;;;;;4.00;0.50;;;10.90;99.90;;;;;;5009396;28;20385;-70
2023/11/05 02:44:59;;;;;;;4.50;0.60;;;11.00;99.90;;;;;;5011901;28;20396;-70
2023/11/05 02:47:25;;;;;;;3.80;0.30;;;11.00;99.90;;;;;;5010793;28;20756;-70
2023/11/05 02:49:50;;;;;;;5.70;0.40;;;11.10;99.90;;;;;;5011669;28;20409;-70
2023/11/05 02:52:16;;;;;;;4.20;0.40;;;11.10;99.90;;;;;;5011601;28;20412;-70
2023/11/05 02:54:42;;;;;;;4.10;0.40;;;11.00;99.90;;;;;;5012346;28;20397;-70
2023/11/05 02:57:08;;;;;;;3.80;0.30;;;11.00;99.90;;;;;;5011142;28;20773;-70
2023/11/05 02:59:33;;;;;;;3.90;0.33;;;11.00;99.90;;;;;;5008407;28;20486;-70
2023/11/05 03:01:59;;;;;;;5.20;0.60;;;11.00;99.90;;;;;;5011372;28;20407;-70
2023/11/05 03:04:25;;;;;;;6.20;0.40;;;11.10;99.90;;;;;;5011127;28;20408;-70
2023/11/05 03:06:51;;;;;;;3.90;0.40;;;11.10;99.90;;;;;;5011024;28;20408;-69
2023/11/05 03:09:18;;;;;;;3.80;0.30;;;11.10;99.90;;;;;;5011129;28;20408;-70
2023/11/05 03:11:48;;;;;;;4.10;0.40;;;11.00;99.90;;;;;;5011394;28;20858;-70
2023/11/05 03:14:14;;;;;;;3.80;0.30;;;11.00;99.90;;;;;;5008729;28;20483;-70
2023/11/05 03:16:41;;;;;;;4.78;0.50;;;11.00;99.90;;;;;;5011520;28;20498;-69
2023/11/05 03:19:07;;;;;;;4.70;1.00;;;11.10;99.90;;;;;;5010925;28;20511;-70
2023/11/05 03:21:32;;;;;;;5.70;0.30;;;11.10;99.90;;;;;;5010918;28;20910;-70
2023/11/05 03:23:58;;;;;;;4.07;0.38;;;11.00;99.90;;;;;;5011132;28;20411;-70
2023/11/05 03:26:24;;;;;;;5.30;0.30;;;11.00;99.90;;;;;;5010716;28;20726;-70
2023/11/05 03:28:50;;;;;;;3.80;0.20;;;11.00;99.90;;;;;;5010472;28;20401;-71
2023/11/05 03:31:15;;;;;;;5.13;0.53;;;11.10;99.90;;;;;;5010654;28;20400;-70
2023/11/05 03:33:42;;;;;;;4.25;0.32;;;11.10;99.90;;;;;;5009527;28;20767;-70
2023/11/05 03:36:08;;;;;;;11.20;0.40;;;11.00;99.90;;;;;;5008615;28;20936;-70
2023/11/05 03:38:34;;;;;;;4.40;0.40;;;11.00;99.90;;;;;;5008511;28;20404;-70
2023/11/05 03:40:59;;;;;;;3.85;0.20;;;11.00;99.90;;;;;;5008626;28;20462;-70
2023/11/05 03:43:26;;;;;;;4.40;0.50;;;11.00;99.90;;;;;;5008341;28;20412;-70
2023/11/05 03:45:52;;;;;;;5.30;0.30;;;11.00;99.90;;;;;;5009710;28;20404;-70
2023/11/05 03:48:17;;;;;;;4.40;0.40;;;11.00;99.90;;;;;;5010788;28;20888;-70
2023/11/05 03:50:43;;;;;;;3.90;0.30;;;11.00;99.90;;;;;;5011124;28;20935;-71
2023/11/05 03:53:09;;;;;;;6.40;1.00;;;10.90;99.90;;;;;;5011005;28;20408;-70
2023/11/05 03:55:34;;;;;;;4.13;0.20;;;10.90;99.90;;;;;;5007510;28;20996;-70
2023/11/05 03:58:00;;;;;;;3.90;0.40;;;10.90;99.90;;;;;;5010141;28;20876;-70
2023/11/05 04:00:25;;;;;;;4.20;0.70;;;10.90;99.90;;;;;;5010417;28;20420;-70
2023/11/05 04:02:51;;;;;;;6.00;0.70;;;11.00;99.90;;;;;;5010041;28;20412;-70
2023/11/05 04:05:16;;;;;;;4.20;0.30;;;11.00;99.90;;;;;;5009782;28;20781;-70
2023/11/05 04:07:42;;;;;;;3.90;0.50;;;11.00;99.90;;;;;;5010732;28;20400;-70
2023/11/05 04:10:08;;;;;;;4.30;0.60;;;11.10;99.90;;;;;;5009962;28;20897;-70
2023/11/05 04:12:37;;;;;;;3.80;0.20;;;11.10;99.90;;;;;;5007014;28;20407;-70
2023/11/05 04:15:06;;;;;;;3.85;0.28;;;11.10;99.90;;;;;;5008983;28;20405;-70
2023/11/05 04:17:32;;;;;;;3.90;0.40;;;11.10;99.90;;;;;;5009825;28;20424;-70
2023/11/05 04:19:58;;;;;;;4.70;0.40;;;11.10;99.90;;;;;;5009789;28;20411;-70
2023/11/05 04:22:23;;;;;;;4.10;0.30;;;11.00;99.90;;;;;;5010010;28;20400;-70
2023/11/05 04:24:49;;;;;;;4.00;0.47;;;11.00;99.90;;;;;;5009544;28;20439;-69
2023/11/05 04:27:18;;;;;;;3.90;0.30;;;11.00;99.90;;;;;;5007304;28;20458;-69
2023/11/05 04:29:44;;;;;;;7.10;0.50;;;10.90;99.90;;;;;;5010304;28;20491;-69
2023/11/05 04:32:10;;;;;;;12.40;0.80;;;10.80;99.90;;;;;;5009787;28;20504;-69
2023/11/05 04:34:36;;;;;;;4.35;0.30;;;10.70;99.90;;;;;;5009357;28;20922;-70
2023/11/05 04:37:02;;;;;;;7.10;0.47;;;10.80;99.90;;;;;;5009847;28;20424;-70
2023/11/05 04:39:28;;;;;;;5.00;0.60;;;10.80;99.90;;;;;;5009275;28;20853;-70
2023/11/05 04:41:53;;;;;;;4.10;0.40;;;11.00;99.90;;;;;;5009401;28;20897;-69
2023/11/05 04:44:19;;;;;;;3.90;0.30;;;11.00;99.90;;;;;;5008589;28;20458;-69
2023/11/05 04:46:45;;;;;;;3.90;0.30;;;11.00;99.90;;;;;;5008885;28;20405;-70
2023/11/05 04:49:10;;;;;;;3.80;0.30;;;11.10;99.90;;;;;;5009601;28;20400;-70
2023/11/05 04:51:36;;;;;;;5.40;0.43;;;11.10;99.90;;;;;;5009422;28;20500;-69
2023/11/05 04:54:02;;;;;;;3.90;0.30;;;11.30;99.90;;;;;;5008752;28;20415;-70
2023/11/05 04:56:28;;;;;;;4.15;0.28;;;11.20;99.90;;;;;;5006987;28;20429;-70
2023/11/05 04:58:53;;;;;;;3.80;0.30;;;11.20;99.90;;;;;;5008843;28;20428;-70
2023/11/05 05:01:19;;;;;;;6.17;0.37;;;11.20;99.90;;;;;;5008875;28;20455;-70
2023/11/05 05:03:44;;;;;;;3.90;0.30;;;11.20;99.90;;;;;;5009747;28;20411;-70
2023/11/05 05:06:10;;;;;;;4.30;0.40;;;11.20;99.90;;;;;;5009471;28;20491;-71
2023/11/05 05:08:35;;;;;;;4.10;0.40;;;11.30;99.90;;;;;;5007535;28;20405;-70
2023/11/05 05:11:01;;;;;;;3.85;0.30;;;11.30;99.90;;;;;;5008624;28;20506;-70
2023/11/05 05:13:28;;;;;;;3.80;0.20;;;11.20;99.90;;;;;;5008900;28;20419;-70
2023/11/05 05:15:54;;;;;;;4.00;0.40;;;11.20;99.90;;;;;;5008790;28;20424;-70
2023/11/05 05:18:20;;;;;;;4.50;0.50;;;11.20;99.90;;;;;;5009427;28;20408;-70
2023/11/05 05:20:45;;;;;;;3.80;0.30;;;11.20;99.90;;;;;;5009182;28;20951;-70
2023/11/05 05:23:11;;;;;;;4.50;0.43;;;11.20;99.90;;;;;;5009519;28;20818;-70
2023/11/05 05:25:36;;;;;;;4.65;0.40;;;11.20;99.90;;;;;;5008485;28;20400;-70
2023/11/05 05:28:02;;;;;;;4.10;0.50;;;11.10;99.90;;;;;;5008511;28;20797;-70
2023/11/05 05:30:27;;;;;;;6.50;1.00;;;11.10;99.90;;;;;;5008697;28;20930;-70
2023/11/05 05:32:53;;;;;;;3.80;0.30;;;11.10;99.90;;;;;;5009205;28;20393;-71
2023/11/05 05:35:19;;;;;;;4.40;0.30;;;11.10;99.90;;;;;;5008872;28;20483;-71
2023/11/05 05:37:44;;;;;;;3.80;0.30;;;11.10;99.90;;;;;;5009071;28;20396;-70
2023/11/05 05:40:10;;;;;;;3.90;0.40;;;11.10;99.90;;;;;;5009019;28;20976;-70
2023/11/05 05:42:36;;;;;;;6.70;0.80;;;11.00;99.90;;;;;;5008790;28;20971;-71
2023/11/05 05:45:03;;;;;;;3.80;0.40;;;11.00;99.90;;;;;;5009080;28;20764;-70
2023/11/05 05:47:28;;;;;;;4.73;0.33;;;11.00;99.90;;;;;;5008847;28;20861;-70
2023/11/05 05:49:54;;;;;;;3.90;0.38;;;10.90;99.90;;;;;;5009040;28;20391;-70
2023/11/05 05:52:19;;;;;;;4.30;0.70;;;11.00;99.90;;;;;;5008592;28;20443;-70
2023/11/05 05:54:45;;;;;;;3.80;0.30;;;10.90;99.90;;;;;;5008857;28;20479;-70
2023/11/05 05:57:11;;;;;;;4.28;0.60;;;10.90;99.90;;;;;;5009839;28;20455;-70
2023/11/05 05:59:37;;;;;;;3.80;0.30;;;10.90;99.90;;;;;;5010266;28;20420;-70
2023/11/05 06:02:05;;;;;;;5.50;0.70;;;11.00;99.90;;;;;;5013075;28;20395;-70
2023/11/05 06:04:30;;;;;;;4.10;0.50;;;10.90;99.90;;;;;;5012731;28;21964;-70
2023/11/05 06:06:56;;;;;;;4.00;0.50;;;10.90;99.90;;;;;;5009874;28;20439;-70
2023/11/05 06:09:22;;;;;;;3.90;0.30;;;10.90;99.90;;;;;;5011044;28;20397;-70
2023/11/05 06:11:48;;;;;;;6.30;0.50;;;11.00;99.90;;;;;;5012986;28;20393;-70
2023/11/05 06:14:14;;;;;;;5.40;0.30;;;11.00;99.90;;;;;;5013221;28;20912;-70
2023/11/05 06:16:39;;;;;;;4.80;0.82;;;11.10;99.90;;;;;;5013222;28;20518;-70
2023/11/05 06:19:05;;;;;;;4.83;0.60;;;11.00;99.90;;;;;;5012445;28;20420;-70
2023/11/05 06:21:30;;;;;;;5.10;0.30;;;11.10;99.90;;;;;;5012747;28;20811;-70
2023/11/05 06:23:56;;;;;;;4.10;0.32;;;11.10;99.90;;;;;;5012993;28;20397;-69
2023/11/05 06:26:24;;;;;;;3.80;0.30;;;11.20;99.90;;;;;;5012770;28;20450;-69
2023/11/05 06:28:49;;;;;;;9.30;0.60;;;11.10;99.90;;;;;;5006118;28;20410;-70
2023/11/05 06:31:16;;;;;;;3.90;0.30;;;11.10;99.90;;;;;;5002768;28;20438;-70
2023/11/05 06:33:41;;;;;;;4.30;0.30;;;11.10;99.90;;;;;;4998561;28;20499;-70
2023/11/05 06:36:07;;;;;;;4.00;0.40;;;11.10;99.90;;;;;;5007257;28;20452;-71
2023/11/05 06:38:33;;;;;;;4.00;0.43;;;11.30;99.90;;;;;;4995145;28;20406;-70
2023/11/05 06:40:59;;;;;;;6.53;0.50;;;11.40;99.90;;;;;;4994966;28;20415;-70
2023/11/05 06:43:24;;;;;;;4.80;0.40;;;11.40;99.90;;;;;;4997146;28;20848;-70
2023/11/05 06:45:50;;;;;;;3.80;0.40;;;11.40;99.90;;;;;;5004590;28;20459;-70
2023/11/05 06:48:16;;;;;;;3.80;0.30;;;11.40;99.90;;;;;;4999799;28;20429;-70
2023/11/05 06:50:42;;;;;;;3.80;0.30;;;11.40;99.90;;;;;;5002427;28;20405;-69
2023/11/05 06:53:07;;;;;;;4.00;0.50;;;11.40;99.90;;;;;;5001059;28;20415;-70
2023/11/05 06:55:33;;;;;;;4.30;0.70;;;11.50;99.90;;;;;;4996207;28;20477;-70
2023/11/05 06:57:58;;;;;;;3.80;0.37;;;11.50;99.90;;;;;;4999100;28;20406;-70
2023/11/05 07:00:24;;;;;;;3.80;0.30;;;11.50;99.90;;;;;;4997886;28;20918;-71
2023/11/05 07:02:50;;;;;;;4.00;0.40;;;11.50;99.90;;;;;;5007127;28;20409;-70
2023/11/05 07:05:17;;;;;;;3.80;0.30;;;11.50;99.90;;;;;;4994088;28;20413;-70
2023/11/05 07:07:42;;;;;;;4.10;0.35;;;11.60;99.90;;;;;;5001160;28;21209;-69
2023/11/05 07:10:09;;;;;;;3.80;0.30;;;11.60;99.90;;;;;;5006214;28;20426;-69
2023/11/05 07:12:35;;;;;;;3.80;0.30;;;11.60;99.90;;;;;;5003349;28;20408;-68
2023/11/05 07:15:01;;;;;;;4.20;0.40;;;11.70;99.90;;;;;;4999731;28;20834;-69
2023/11/05 07:17:27;;;;;;;4.50;0.40;;;11.80;99.90;;;;;;4992833;28;20778;-70
2023/11/05 07:19:53;;;;;;;3.80;0.23;;;12.10;99.90;;;;;;5006059;28;20408;-70
2023/11/05 07:22:18;;;;;;;4.60;0.47;;;12.60;99.90;;;;;;4999793;28;20397;-70
2023/11/05 07:24:44;;;;;;;4.30;0.40;;;12.90;99.90;;;;;;5002670;28;20425;-70
2023/11/05 07:27:10;;;;;;;5.30;0.50;;;13.10;99.90;;;;;;5003416;28;20438;-69
2023/11/05 07:29:35;;;;;;;4.00;0.40;;;13.50;99.90;;;;;;5008565;28;20415;-70
2023/11/05 07:32:01;;;;;;;4.10;0.47;;;14.40;1.00;;;;;;5005105;28;20884;-69
2023/11/05 07:34:26;;;;;;;4.10;0.40;;;14.30;99.90;;;;;;5005613;28;20409;-69
2023/11/05 07:36:52;;;;;;;3.92;0.30;;;13.70;99.90;;;;;;5003547;28;20494;-70
2023/11/05 07:39:18;;;;;;;3.95;0.40;;;13.10;99.90;;;;;;5008098;28;20403;-69
2023/11/05 07:41:43;;;;;;;4.00;0.40;;;14.10;1.00;;;;;;5009638;28;20409;-69
2023/11/05 07:44:10;;;;;;;5.90;0.60;;;14.50;1.00;;;;;;4994204;28;20417;-69
2023/11/05 07:46:35;;;;;;;4.00;0.40;;;14.90;1.00;;;;;;4993517;28;20406;-68
2023/11/05 07:49:01;;;;;;;4.20;0.40;;;15.50;1.00;;;;;;4997330;28;20879;-68
2023/11/05 07:51:27;;;;;;;4.10;0.30;;;16.20;1.00;;;;;;4991813;28;20422;-69
2023/11/05 07:53:53;;;;;;;4.10;0.30;;;16.70;1.00;;;;;;5008554;28;20409;-68
2023/11/05 07:56:18;;;;;;;4.20;0.40;;;15.80;1.00;;;;;;4998485;28;20430;-69
2023/11/05 07:58:44;;;;;;;4.30;0.50;;;16.00;1.00;;;;;;4999214;28;20426;-69
2023/11/05 08:01:11;;;;;;;4.10;0.40;;;15.80;1.00;;;;;;4994191;28;20485;-69
2023/11/05 08:03:40;;;;;;;4.10;0.40;;;16.20;1.00;;;;;;4997817;28;20434;-69
2023/11/05 08:06:06;;;;;;;4.13;0.40;;;16.50;1.00;;;;;;5009252;28;20425;-69
2023/11/05 08:08:31;;;;;;;4.20;0.40;;;17.20;1.00;;;;;;4999325;28;20475;-70
2023/11/05 08:10:57;;;;;;;4.10;0.30;;;17.80;1.00;;;;;;4998063;28;20916;-71
2023/11/05 08:13:22;;;;;;;4.10;0.40;;;17.90;1.00;;;;;;4991717;28;20839;-69
2023/11/05 08:15:48;;;;;;;4.30;0.40;;;17.60;1.00;;;;;;5004051;28;20470;-69
2023/11/05 08:18:14;;;;;;;4.10;0.40;;;16.60;99.90;;;;;;5002706;28;20419;-69
2023/11/05 08:20:40;;;;;;;4.13;0.35;;;16.50;1.00;;;;;;5001121;28;20568;-69
2023/11/05 08:23:05;;;;;;;5.00;0.40;;;16.30;1.00;;;;;;5007476;28;20416;-69
2023/11/05 08:25:31;;;;;;;4.27;0.50;;;16.60;1.00;;;;;;5010094;28;20408;-69
2023/11/05 08:27:56;;;;;;;4.10;0.40;;;16.40;1.00;;;;;;4991715;28;20423;-69
2023/11/05 08:30:23;;;;;;;4.10;0.30;;;16.80;1.00;;;;;;5003761;28;20462;-70
2023/11/05 08:32:54;;;;;;;4.20;0.40;;;17.80;1.00;;;;;;5003571;28;20418;-70
2023/11/05 08:35:19;;;;;;;4.10;0.40;;;18.00;1.00;;;;;;4993131;28;20762;-70
2023/11/05 08:37:49;;;;;;;4.10;0.40;;;17.70;1.00;;;;;;5005624;28;20426;-70
2023/11/05 08:40:16;;;;;;;4.10;0.30;;;17.50;1.00;;;;;;4994885;28;20410;-70
2023/11/05 08:42:52;;;;;;;4.10;0.40;;;17.70;1.00;;;;;;5074988;28;20385;-68
2023/11/05 08:45:18;;;;;;;4.10;0.30;;;17.20;1.00;;;;;;5074275;28;20786;-69
2023/11/05 08:47:43;;;;;;;4.10;0.30;;;17.30;1.00;;;;;;5074785;28;20901;-69
2023/11/05 08:50:09;;;;;;;4.20;0.50;;;17.20;1.00;;;;;;5078637;28;20499;-69
2023/11/05 08:52:35;;;;;;;4.30;0.30;;;17.40;1.00;;;;;;5068599;28;20903;-69
2023/11/05 08:55:04;;;;;;;4.10;0.40;;;17.60;1.00;;;;;;5071005;28;20458;-69
2023/11/05 08:57:30;;;;;;;4.20;0.50;;;17.20;99.90;;;;;;5065743;28;20428;-69
2023/11/05 08:59:55;;;;;;;4.20;0.40;;;17.70;99.90;;;;;;5065507;28;20432;-69
2023/11/05 09:02:22;;;;;;;4.20;0.50;;;17.70;99.90;;;;;;5074516;28;20589;-69
2023/11/05 09:04:48;;;;;;;4.10;0.30;;;18.30;1.00;;;;;;5076255;28;20412;-69
2023/11/05 09:07:14;;;;;;;4.30;0.40;;;18.10;1.00;;;;;;5079932;28;20396;-69
2023/11/05 09:09:40;;;;;;;4.20;0.50;;;18.30;1.00;;;;;;5072809;28;20499;-69
2023/11/05 09:12:09;;;;;;;5.60;0.50;;;18.00;1.00;;;;;;5073188;28;20416;-70
2023/11/05 09:14:36;;;;;;;5.00;0.50;;;17.70;1.00;;;;;;5073232;28;20417;-70
2023/11/05 09:17:03;;;;;;;4.80;0.40;;;17.50;1.00;;;;;;5077441;28;20395;-71
2023/11/05 09:19:28;;;;;;;4.10;0.30;;;17.60;1.00;;;;;;5065833;28;20417;-71
2023/11/05 09:21:54;;;;;;;4.40;0.50;;;17.60;99.90;;;;;;5077236;28;20411;-69
2023/11/05 09:24:20;;;;;;;4.10;0.40;;;16.60;99.90;;;;;;5077539;28;20427;-70
2023/11/05 09:26:46;;;;;;;4.10;0.40;;;15.50;99.90;;;;;;5078280;28;20437;-69
2023/11/05 09:29:11;;;;;;;4.10;0.30;;;14.90;99.90;;;;;;5073701;28;20401;-70
2023/11/05 09:31:37;;;;;;;4.10;0.30;;;14.30;99.90;;;;;;5075230;28;20818;-70
2023/11/05 09:34:04;;;;;;;4.10;0.30;;;14.30;99.90;;;;;;5065521;28;20408;-70
2023/11/05 09:36:30;;;;;;;4.03;0.40;;;14.00;99.90;;;;;;5071866;28;20763;-70
2023/11/05 09:38:56;;;;;;;4.10;0.40;;;13.80;99.90;;;;;;5067306;28;20396;-70
2023/11/05 09:41:25;;;;;;;4.10;0.40;;;13.80;99.90;;;;;;5072107;28;20427;-70
2023/11/05 09:43:52;;;;;;;4.00;0.40;;;14.00;99.90;;;;;;5084388;28;20464;-70
2023/11/05 09:46:17;;;;;;;4.10;0.50;;;14.20;99.90;;;;;;5083907;28;20496;-70
2023/11/05 09:48:43;;;;;;;4.10;0.47;;;14.30;99.90;;;;;;5084690;28;20438;-70
2023/11/05 09:51:11;;;;;;;4.00;0.40;;;14.20;99.90;;;;;;5084444;28;20460;-70
2023/11/05 09:53:37;;;;;;;4.00;0.40;;;14.20;99.90;;;;;;5073996;28;20404;-70
2023/11/05 09:56:04;;;;;;;4.30;0.60;;;14.00;99.90;;;;;;5078979;28;20459;-70
2023/11/05 09:58:29;;;;;;;4.20;0.43;;;14.00;99.90;;;;;;5079741;28;20874;-70
2023/11/05 10:00:55;;;;;;;4.70;0.40;;;14.00;99.90;;;;;;5072306;28;20494;-70
2023/11/05 10:03:21;;;;;;;4.00;0.30;;;13.70;99.90;;;;;;5078173;28;20883;-69
2023/11/05 10:05:47;;;;;;;4.50;0.40;;;13.40;99.90;;;;;;5071472;28;20434;-69
2023/11/05 10:08:13;;;;;;;5.40;0.52;;;13.40;99.90;;;;;;5071809;28;20886;-70
2023/11/05 10:10:41;;;;;;;4.00;0.40;;;13.20;99.90;;;;;;5078756;28;20929;-70
2023/11/05 10:13:06;;;;;;;4.60;0.47;;;13.10;99.90;;;;;;5071604;28;20406;-70
2023/11/05 10:15:33;;;;;;;3.90;0.30;;;13.10;99.90;;;;;;5074899;28;20909;-70
2023/11/05 10:17:59;;;;;;;4.07;0.50;;;13.10;99.90;;;;;;5077392;28;20419;-70
2023/11/05 10:20:25;;;;;;;4.00;0.40;;;13.10;99.90;;;;;;5077862;28;20408;-70
2023/11/05 10:23:05;;;;;;;4.00;0.50;;;13.40;99.90;;;;;;5070968;28;20783;-70
2023/11/05 10:25:32;;;;;;;3.90;0.40;;;13.30;99.90;;;;;;5082496;28;20409;-70
2023/11/05 10:27:58;;;;;;;4.20;0.60;;;13.10;99.90;;;;;;5089888;28;20413;-71
2023/11/05 10:30:25;;;;;;;3.90;0.30;;;12.90;99.90;;;;;;5076635;28;20398;-71
2023/11/05 10:32:52;;;;;;;6.00;0.40;;;12.80;99.90;;;;;;5082947;28;20403;-72
2023/11/05 10:35:19;;;;;;;5.43;0.70;;;12.80;99.90;;;;;;5084344;28;20909;-71
2023/11/05 10:37:46;;;;;;;3.90;0.30;;;12.80;99.90;;;;;;5075670;28;20404;-71
2023/11/05 10:40:13;;;;;;;3.92;0.40;;;12.60;99.90;;;;;;5090536;28;20936;-70
2023/11/05 10:42:40;;;;;;;3.80;0.40;;;12.50;99.90;;;;;;5079235;28;20438;-70
2023/11/05 10:45:08;;;;;;;3.80;0.30;;;12.30;99.90;;;;;;5090808;28;20787;-70
2023/11/05 10:47:35;;;;;;;3.80;0.40;;;12.70;1.00;;;;;;5081363;28;20402;-70
2023/11/05 10:50:06;;;;;;;4.10;0.60;;;13.80;1.00;;;;;;5076988;28;20398;-68
2023/11/05 10:52:33;;;;;;;4.25;0.50;;;15.00;99.90;;;;;;5074991;28;20465;-69
2023/11/05 10:55:09;;;;;;;4.10;0.50;;;14.60;99.90;;;;;;5071108;28;20437;-69
2023/11/05 10:57:41;;;;;;;4.30;0.60;;;14.30;99.90;;;;;;5077548;28;20415;-71
2023/11/05 11:00:27;;;;;;;4.00;0.40;;;13.70;99.90;;;;;;5070084;28;20422;-71
2023/11/05 11:02:54;;;;;;;3.97;0.50;;;13.60;99.90;;;;;;5022581;28;20445;-71
2023/11/05 11:05:20;;;;;;;3.90;0.50;;;13.10;99.90;;;;;;5076179;28;20407;-71
2023/11/05 11:07:46;;;;;;;4.10;0.32;;;12.70;99.90;;;;;;5070655;28;20478;-71
2023/11/05 11:10:20;;;;;;;7.50;0.60;;;12.30;1.00;;;;;;5079960;28;21024;-71
2023/11/05 11:12:45;;;;;;;5.20;0.60;;;12.10;1.00;;;;;;5081206;28;20392;-71
2023/11/05 11:15:32;;;;;;;4.10;0.60;;;12.10;1.00;;;;;;5070990;28;20414;-71
2023/11/05 11:18:01;;;;;;;3.80;0.30;;;12.20;1.00;;;;;;5070088;28;20410;-71
2023/11/05 11:20:28;;;;;;;4.00;0.50;;;12.20;1.00;;;;;;5077805;28;20410;-72
2023/11/05 11:22:54;;;;;;;6.00;0.50;;;12.20;1.00;;;;;;5069940;28;20775;-71
2023/11/05 11:25:20;;;;;;;3.80;0.40;;;12.40;1.00;;;;;;5070793;28;20396;-71
2023/11/05 11:27:49;;;;;;;3.70;0.40;;;12.30;1.00;;;;;;5081855;28;20393;-71
2023/11/05 11:30:15;;;;;;;4.20;0.40;;;12.40;1.00;;;;;;5070905;28;20406;-70
2023/11/05 11:32:41;;;;;;;5.00;0.70;;;12.30;1.00;;;;;;5079809;28;20398;-71
2023/11/05 11:35:07;;;;;;;3.60;0.30;;;12.20;1.00;;;;;;5070283;28;20491;-71
2023/11/05 11:37:34;;;;;;;4.70;0.70;;;12.20;1.00;;;;;;5079367;28;20528;-70
2023/11/05 11:40:01;;;;;;;3.67;0.30;;;12.30;1.00;;;;;;5077041;28;20477;-71
2023/11/05 11:42:26;;;;;;;4.40;0.60;;;12.50;1.00;;;;;;5075754;28;20780;-70
2023/11/05 11:44:53;;;;;;;4.00;0.40;;;12.50;1.00;;;;;;5069943;28;20414;-70
2023/11/05 11:47:22;;;;;;;3.88;0.32;;;12.50;1.00;;;;;;5077123;28;20408;-71
2023/11/05 11:49:48;;;;;;;3.60;0.40;;;12.50;1.00;;;;;;5069747;28;20956;-71
2023/11/05 11:52:14;;;;;;;3.60;0.30;;;12.90;1.00;;;;;;5069728;28;20465;-70
2023/11/05 11:54:42;;;;;;;4.87;0.60;;;12.90;1.00;;;;;;5069578;28;20442;-70
2023/11/05 11:57:07;;;;;;;5.90;0.40;;;13.10;1.00;;;;;;5069436;28;20404;-70
2023/11/05 11:59:33;;;;;;;3.70;0.50;;;13.10;1.00;;;;;;5077865;28;20900;-70
2023/11/05 12:02:00;;;;;;;4.40;0.60;;;13.30;1.00;;;;;;5081235;28;20452;-70
2023/11/05 12:04:27;;;;;;;3.70;0.40;;;13.40;1.00;;;;;;5077453;28;20495;-70
2023/11/05 12:06:53;;;;;;;3.70;0.30;;;13.40;1.00;;;;;;5072353;28;20429;-71
2023/11/05 12:09:23;;;;;;;3.73;0.40;;;13.10;1.00;;;;;;5070071;28;20469;-70
2023/11/05 12:11:50;;;;;;;5.90;0.73;;;13.00;1.00;;;;;;5076024;28;20676;-70
2023/11/05 12:14:23;;;;;;;3.70;0.40;;;13.10;1.00;;;;;;5074950;28;20398;-71
2023/11/05 12:16:49;;;;;;;3.60;0.30;;;13.00;1.00;;;;;;5075648;28;20398;-71
2023/11/05 12:19:15;;;;;;;3.70;0.40;;;12.80;1.00;;;;;;5076934;28;20417;-70
2023/11/05 12:21:42;;;;;;;3.80;0.52;;;13.00;1.00;;;;;;5078094;28;20566;-70
2023/11/05 12:24:09;;;;;;;3.90;0.50;;;13.00;1.00;;;;;;5086977;28;20406;-70
2023/11/05 12:26:41;;;;;;;3.70;0.30;;;13.00;1.00;;;;;;5076461;28;20825;-70
2023/11/05 12:29:11;;;;;;;3.70;0.40;;;13.10;1.00;;;;;;5074864;28;20871;-70
2023/11/05 12:31:37;;;;;;;5.30;0.40;;;13.20;1.00;;;;;;5070201;28;20412;-70
2023/11/05 12:34:03;;;;;;;4.03;0.43;;;13.10;1.00;;;;;;5081676;28;20476;-70
2023/11/05 12:36:28;;;;;;;3.90;0.40;;;12.90;1.00;;;;;;5076800;28;20411;-71
2023/11/05 12:38:54;;;;;;;3.80;0.43;;;13.10;1.00;;;;;;5074972;28;20742;-71
2023/11/05 12:41:19;;;;;;;3.80;0.40;;;13.20;1.00;;;;;;5084882;28;20884;-70
2023/11/05 12:43:45;;;;;;;3.70;0.30;;;13.10;1.00;;;;;;5086691;28;20409;-70
2023/11/05 12:46:11;;;;;;;5.00;0.40;;;13.00;1.00;;;;;;5084310;28;20416;-70